Time;durP1;ratioP1;P1;durP2;ratioP2;P2;SDS_P1;SDS_P2;PMS_P1;PMS_P2;Temp;Humidity;BMP_temperature;BMP_pressure;BME280_temperature;BME280_humidity;BME280_pressure;Samples;Min_cycle;Max_cycle;Signal;HPM_P1;HPM_P2
2023/03/15 00:01:25;;;;;;;7.13;2.77;;;2.30;99.90;;;;;;4882679;29;20488;-79
2023/03/15 00:03:54;;;;;;;9.57;3.40;;;2.30;99.90;;;;;;4882609;29;20549;-79
2023/03/15 00:06:23;;;;;;;9.73;2.83;;;2.30;99.90;;;;;;4882508;29;20488;-79
2023/03/15 00:08:51;;;;;;;9.33;3.47;;;2.30;99.90;;;;;;4882259;29;20887;-79
2023/03/15 00:11:19;;;;;;;7.53;3.23;;;2.40;99.90;;;;;;4883663;29;20469;-79
2023/03/15 00:13:47;;;;;;;9.10;2.90;;;2.30;99.90;;;;;;4882607;29;20465;-79
2023/03/15 00:16:17;;;;;;;16.47;3.80;;;2.20;99.90;;;;;;4882627;29;20497;-79
2023/03/15 00:18:46;;;;;;;10.20;3.70;;;2.40;99.90;;;;;;4882240;29;20466;-79
2023/03/15 00:21:15;;;;;;;9.87;2.77;;;2.40;99.90;;;;;;4882560;29;20556;-79
2023/03/15 00:23:43;;;;;;;6.93;2.80;;;2.30;99.90;;;;;;4882264;29;20825;-79
2023/03/15 00:26:12;;;;;;;9.83;3.37;;;2.30;99.90;;;;;;4882006;29;20522;-79
2023/03/15 00:28:40;;;;;;;7.97;2.90;;;2.30;99.90;;;;;;4882050;29;20467;-79
2023/03/15 00:31:12;;;;;;;8.53;3.20;;;2.40;99.90;;;;;;4882512;29;20501;-79
2023/03/15 00:33:42;;;;;;;8.63;2.90;;;2.30;99.90;;;;;;4882341;29;20460;-79
2023/03/15 00:36:11;;;;;;;7.83;2.93;;;2.30;99.90;;;;;;4882429;29;20792;-79
2023/03/15 00:38:42;;;;;;;14.20;3.23;;;2.30;99.90;;;;;;4881981;29;20513;-79
2023/03/15 00:41:12;;;;;;;7.07;3.03;;;2.30;99.90;;;;;;4881898;29;20476;-79
2023/03/15 00:43:41;;;;;;;11.00;3.57;;;2.30;99.90;;;;;;4881754;29;20447;-79
2023/03/15 00:46:10;;;;;;;6.47;2.17;;;2.30;99.90;;;;;;4881870;29;20478;-79
2023/03/15 00:48:38;;;;;;;8.37;2.73;;;2.30;99.90;;;;;;4881653;29;20974;-79
2023/03/15 00:51:09;;;;;;;11.93;3.07;;;2.30;99.90;;;;;;4881847;29;20478;-79
2023/03/15 00:53:39;;;;;;;7.63;3.13;;;2.30;99.90;;;;;;4881265;29;20821;-77
2023/03/15 00:56:10;;;;;;;6.93;2.93;;;2.30;99.90;;;;;;4880549;29;20486;-77
2023/03/15 00:58:39;;;;;;;6.30;3.47;;;2.30;99.90;;;;;;4880649;29;20480;-77
2023/03/15 01:01:08;;;;;;;7.90;3.10;;;2.40;99.90;;;;;;4880417;29;20510;-77
2023/03/15 01:03:38;;;;;;;8.90;3.73;;;2.40;99.90;;;;;;4880467;29;20446;-77
2023/03/15 01:06:09;;;;;;;10.40;2.73;;;2.40;99.90;;;;;;4880742;29;20502;-77
2023/03/15 01:08:37;;;;;;;7.93;3.07;;;2.30;99.90;;;;;;4880352;29;20556;-77
2023/03/15 01:11:08;;;;;;;9.33;2.70;;;2.40;99.90;;;;;;4879925;29;20482;-77
2023/03/15 01:13:37;;;;;;;8.70;2.80;;;2.40;99.90;;;;;;4880294;29;20456;-77
2023/03/15 01:16:07;;;;;;;12.90;3.30;;;2.40;99.90;;;;;;4881971;29;20455;-77
2023/03/15 01:18:37;;;;;;;6.97;2.60;;;2.40;99.90;;;;;;4880285;29;20445;-77
2023/03/15 01:21:08;;;;;;;7.83;2.80;;;2.50;99.90;;;;;;4880223;29;20482;-76
2023/03/15 01:23:36;;;;;;;8.80;3.07;;;2.40;99.90;;;;;;4881486;29;20426;-77
2023/03/15 01:26:07;;;;;;;7.40;4.10;;;2.50;99.90;;;;;;4879908;29;20480;-77
2023/03/15 01:28:35;;;;;;;7.80;3.10;;;2.40;99.90;;;;;;4880008;29;20450;-77
2023/03/15 01:31:03;;;;;;;9.03;2.80;;;2.50;99.90;;;;;;4880149;29;20481;-77
2023/03/15 01:33:31;;;;;;;8.10;3.00;;;2.50;99.90;;;;;;4879732;29;20446;-77
2023/03/15 01:36:01;;;;;;;9.10;2.97;;;2.50;99.90;;;;;;4879831;29;20556;-77
2023/03/15 01:38:32;;;;;;;9.07;3.20;;;2.50;99.90;;;;;;4879857;29;20490;-77
2023/03/15 01:41:04;;;;;;;10.87;2.77;;;2.50;99.90;;;;;;4879996;29;20512;-77
2023/03/15 01:43:33;;;;;;;9.13;2.70;;;2.50;99.90;;;;;;4879730;29;20456;-77
2023/03/15 01:46:17;;;;;;;7.10;3.17;;;2.50;99.90;;;;;;4879674;29;20451;-77
2023/03/15 01:48:50;;;;;;;9.63;3.17;;;2.60;99.90;;;;;;4880475;29;20501;-77
2023/03/15 01:51:27;;;;;;;8.53;2.97;;;2.60;99.90;;;;;;4879616;29;20853;-77
2023/03/15 01:54:00;;;;;;;6.73;2.60;;;2.50;99.90;;;;;;4879666;29;21012;-77
2023/03/15 01:56:33;;;;;;;10.80;3.40;;;2.60;99.90;;;;;;4879846;29;20525;-77
2023/03/15 01:59:04;;;;;;;10.00;3.43;;;2.60;99.90;;;;;;4880252;29;20465;-77
2023/03/15 02:01:35;;;;;;;7.87;3.07;;;2.60;99.90;;;;;;4879410;29;20540;-77
2023/03/15 02:04:07;;;;;;;11.40;2.90;;;2.60;99.90;;;;;;4879469;29;20846;-77
2023/03/15 02:06:45;;;;;;;9.20;2.73;;;2.50;99.90;;;;;;4879209;29;20938;-77
2023/03/15 02:09:18;;;;;;;10.33;3.60;;;2.60;99.90;;;;;;4879233;29;20446;-77
2023/03/15 02:11:48;;;;;;;11.10;3.00;;;2.70;99.90;;;;;;4879217;29;20505;-77
2023/03/15 02:14:18;;;;;;;10.23;3.63;;;2.60;99.90;;;;;;4879844;29;20461;-77
2023/03/15 02:16:48;;;;;;;8.37;3.70;;;2.60;99.90;;;;;;4879290;29;20552;-77
2023/03/15 02:19:28;;;;;;;10.13;3.60;;;2.50;99.90;;;;;;4879575;29;20480;-77
2023/03/15 02:22:06;;;;;;;11.40;3.77;;;2.60;99.90;;;;;;4878532;29;20577;-77
2023/03/15 02:24:44;;;;;;;8.77;3.60;;;2.60;99.90;;;;;;4878856;29;20960;-77
2023/03/15 02:27:12;;;;;;;9.93;4.00;;;2.50;99.90;;;;;;4878834;29;20517;-77
2023/03/15 02:29:43;;;;;;;10.23;3.80;;;2.50;99.90;;;;;;4878931;29;20837;-77
2023/03/15 02:32:12;;;;;;;10.70;3.67;;;2.50;99.90;;;;;;4879299;29;20799;-77
2023/03/15 02:34:40;;;;;;;8.50;3.73;;;2.60;99.90;;;;;;4879103;29;20879;-77
2023/03/15 02:37:09;;;;;;;11.70;4.03;;;2.50;99.90;;;;;;4878980;29;20986;-77
2023/03/15 02:39:37;;;;;;;9.67;3.80;;;2.60;99.90;;;;;;4878837;29;20486;-77
2023/03/15 02:42:06;;;;;;;9.90;3.87;;;2.60;99.90;;;;;;4878800;29;20520;-77
2023/03/15 02:44:37;;;;;;;8.40;3.80;;;2.60;99.90;;;;;;4879034;29;20465;-77
2023/03/15 02:47:11;;;;;;;9.70;4.03;;;2.50;99.90;;;;;;4878946;29;20470;-78
2023/03/15 02:49:43;;;;;;;10.07;4.00;;;2.60;99.90;;;;;;4878653;29;20486;-78
2023/03/15 02:52:12;;;;;;;10.57;3.83;;;2.50;99.90;;;;;;4878666;29;20454;-77
2023/03/15 02:54:42;;;;;;;8.00;3.53;;;2.50;99.90;;;;;;4878515;29;20886;-78
2023/03/15 02:57:10;;;;;;;9.20;4.20;;;2.50;99.90;;;;;;4878418;29;20469;-78
2023/03/15 02:59:38;;;;;;;11.23;3.53;;;2.50;99.90;;;;;;4878477;29;20488;-77
2023/03/15 03:02:10;;;;;;;8.03;4.00;;;2.50;99.90;;;;;;4878589;29;20465;-77
2023/03/15 03:04:40;;;;;;;8.67;3.70;;;2.50;99.90;;;;;;4878725;29;20446;-77
2023/03/15 03:07:08;;;;;;;8.10;3.83;;;2.50;99.90;;;;;;4878295;29;20470;-77
2023/03/15 03:09:49;;;;;;;9.20;3.93;;;2.50;99.90;;;;;;4878946;29;20482;-77
2023/03/15 03:12:19;;;;;;;8.20;4.13;;;2.50;99.90;;;;;;4878255;29;20485;-77
2023/03/15 03:14:48;;;;;;;10.50;5.10;;;2.50;99.90;;;;;;4878656;29;20458;-77
2023/03/15 03:17:22;;;;;;;6.13;3.00;;;2.50;99.90;;;;;;4879001;29;20438;-77
2023/03/15 03:19:51;;;;;;;10.73;3.97;;;2.50;99.90;;;;;;4878357;29;20832;-77
2023/03/15 03:22:25;;;;;;;7.90;3.50;;;2.50;99.90;;;;;;4878579;29;20466;-77
2023/03/15 03:24:54;;;;;;;8.23;3.47;;;2.50;99.90;;;;;;4879467;29;20456;-78
2023/03/15 03:27:23;;;;;;;12.90;3.90;;;2.50;99.90;;;;;;4878867;29;20549;-78
2023/03/15 03:29:51;;;;;;;13.40;4.03;;;2.50;99.90;;;;;;4879676;29;20470;-78
2023/03/15 03:32:21;;;;;;;8.37;3.73;;;2.50;99.90;;;;;;4880018;29;20485;-79
2023/03/15 03:34:52;;;;;;;8.70;3.40;;;2.60;99.90;;;;;;4883148;29;20449;-79
2023/03/15 03:37:23;;;;;;;7.93;3.50;;;2.60;99.90;;;;;;4883066;29;20465;-78
2023/03/15 03:40:04;;;;;;;9.13;4.27;;;2.60;99.90;;;;;;4881928;29;20979;-77
2023/03/15 03:42:32;;;;;;;7.60;3.87;;;2.60;99.90;;;;;;4881973;29;20454;-78
2023/03/15 03:45:00;;;;;;;8.33;3.50;;;2.60;99.90;;;;;;4881565;29;20985;-77
2023/03/15 03:47:42;;;;;;;11.97;3.70;;;2.60;99.90;;;;;;4882312;29;20484;-77
2023/03/15 03:50:11;;;;;;;12.40;4.20;;;2.50;99.90;;;;;;4881967;29;20477;-78
2023/03/15 03:52:42;;;;;;;10.80;3.70;;;2.50;99.90;;;;;;4881667;29;20460;-77
2023/03/15 03:55:17;;;;;;;8.20;4.00;;;2.50;99.90;;;;;;4882227;29;20461;-78
2023/03/15 03:57:45;;;;;;;8.07;3.40;;;2.50;99.90;;;;;;4881789;29;20461;-77
2023/03/15 04:00:23;;;;;;;8.83;4.03;;;2.50;99.90;;;;;;4882132;29;20504;-77
2023/03/15 04:02:52;;;;;;;9.60;3.57;;;2.50;99.90;;;;;;4881530;29;20457;-78
2023/03/15 04:05:21;;;;;;;10.50;3.47;;;2.50;99.90;;;;;;4881562;29;20461;-78
2023/03/15 04:07:49;;;;;;;12.03;3.80;;;2.50;99.90;;;;;;4881567;29;20478;-78
2023/03/15 04:10:18;;;;;;;8.93;3.57;;;2.50;99.90;;;;;;4881321;29;20478;-77
2023/03/15 04:12:48;;;;;;;11.00;4.00;;;2.50;99.90;;;;;;4881263;29;20552;-78
2023/03/15 04:15:17;;;;;;;8.33;3.10;;;2.50;99.90;;;;;;4881275;29;20521;-78
2023/03/15 04:17:45;;;;;;;11.20;4.93;;;2.40;99.90;;;;;;4881446;29;20915;-78
2023/03/15 04:20:16;;;;;;;8.87;3.50;;;2.40;99.90;;;;;;4881248;29;20486;-78
2023/03/15 04:22:48;;;;;;;10.53;3.70;;;2.40;99.90;;;;;;4881256;29;20484;-77
2023/03/15 04:25:30;;;;;;;15.20;4.63;;;2.40;99.90;;;;;;4881373;29;21025;-77
2023/03/15 04:28:12;;;;;;;7.47;3.40;;;2.40;99.90;;;;;;4880966;29;21024;-78
2023/03/15 04:30:43;;;;;;;9.20;3.70;;;2.30;99.90;;;;;;4882207;29;20875;-77
2023/03/15 04:33:32;;;;;;;8.23;3.60;;;2.30;99.90;;;;;;4871879;29;20489;-78
2023/03/15 04:36:18;;;;;;;7.57;3.27;;;2.30;99.90;;;;;;4880899;29;20482;-78
2023/03/15 04:39:04;;;;;;;7.30;3.53;;;2.30;99.90;;;;;;4882726;29;20433;-78
2023/03/15 04:41:45;;;;;;;7.07;3.83;;;2.30;99.90;;;;;;4880803;29;20456;-77
2023/03/15 04:44:25;;;;;;;14.37;4.27;;;2.20;99.90;;;;;;4880570;29;20997;-78
2023/03/15 04:47:09;;;;;;;9.67;3.73;;;2.20;99.90;;;;;;4881002;29;20468;-78
2023/03/15 04:50:00;;;;;;;7.63;4.07;;;2.20;99.90;;;;;;4882116;29;20473;-76
2023/03/15 04:52:36;;;;;;;9.10;4.40;;;2.20;99.90;;;;;;4880865;29;20458;-78
2023/03/15 04:55:21;;;;;;;10.17;4.33;;;2.20;99.90;;;;;;4880705;29;20460;-78
2023/03/15 04:58:12;;;;;;;8.43;4.10;;;4.00;99.90;;;;;;4863782;29;20464;-77
2023/03/15 05:01:05;;;;;;;9.07;4.10;;;2.10;99.90;;;;;;4881657;29;20573;-77
2023/03/15 05:03:45;;;;;;;10.80;3.40;;;2.00;99.90;;;;;;4881841;29;20436;-77
2023/03/15 05:06:28;;;;;;;8.43;3.80;;;2.00;99.90;;;;;;4881093;29;20467;-78
2023/03/15 05:09:08;;;;;;;9.00;4.63;;;2.00;99.90;;;;;;4881604;29;21002;-77
2023/03/15 05:12:06;;;;;;;6.50;4.40;;;2.00;99.90;;;;;;4880381;29;20469;-77
2023/03/15 05:14:44;;;;;;;7.97;4.00;;;1.90;99.90;;;;;;4880311;29;20442;-77
2023/03/15 05:17:32;;;;;;;9.30;4.37;;;1.90;99.90;;;;;;4880573;29;20492;-77
2023/03/15 05:20:18;;;;;;;8.63;4.47;;;1.90;99.90;;;;;;4880069;29;20504;-77
2023/03/15 05:23:10;;;;;;;11.60;3.77;;;1.90;99.90;;;;;;4872214;29;20454;-77
2023/03/15 05:26:15;;;;;;;9.13;4.80;;;1.80;99.90;;;;;;4871470;29;20449;-77
2023/03/15 05:29:09;;;;;;;9.67;3.50;;;1.80;99.90;;;;;;4879832;29;20477;-77
2023/03/15 05:32:07;;;;;;;12.70;4.23;;;1.80;99.90;;;;;;4877495;29;20457;-77
2023/03/15 05:34:55;;;;;;;10.37;4.10;;;1.70;99.90;;;;;;4881362;29;20472;-78
2023/03/15 05:37:44;;;;;;;6.93;4.10;;;1.70;99.90;;;;;;4879125;29;20507;-79
2023/03/15 05:40:36;;;;;;;8.37;4.30;;;1.70;99.90;;;;;;4881264;29;20553;-79
2023/03/15 05:43:37;;;;;;;7.30;4.77;;;1.70;99.90;;;;;;4881459;29;20456;-79
2023/03/15 05:46:37;;;;;;;9.43;4.27;;;1.80;99.90;;;;;;4873409;29;20542;-79
2023/03/15 05:49:11;;;;;;;11.50;4.90;;;1.60;99.90;;;;;;4884094;29;20519;-79
2023/03/15 05:51:47;;;;;;;7.20;3.93;;;1.60;99.90;;;;;;4883008;29;20461;-79
2023/03/15 05:54:37;;;;;;;9.83;5.13;;;1.60;99.90;;;;;;4883683;29;20439;-79
2023/03/15 05:57:11;;;;;;;8.13;3.93;;;1.60;99.90;;;;;;4881780;29;20468;-78
2023/03/15 05:59:55;;;;;;;8.77;4.60;;;1.60;99.90;;;;;;4880114;29;21013;-77
2023/03/15 06:02:45;;;;;;;9.53;3.70;;;1.60;99.90;;;;;;4881278;29;20801;-77
2023/03/15 06:05:36;;;;;;;12.07;4.00;;;1.60;99.90;;;;;;4880256;29;20459;-77
2023/03/15 06:08:07;;;;;;;8.00;3.40;;;1.60;99.90;;;;;;4881318;29;20887;-79
2023/03/15 06:10:40;;;;;;;9.37;4.40;;;1.60;99.90;;;;;;4880264;29;20555;-79
2023/03/15 06:13:10;;;;;;;6.53;3.57;;;1.60;99.90;;;;;;4880252;29;20466;-79
2023/03/15 06:15:41;;;;;;;5.13;2.67;;;1.60;99.90;;;;;;4879820;29;20458;-79
2023/03/15 06:18:12;;;;;;;11.13;3.33;;;1.60;99.90;;;;;;4879907;29;20453;-79
2023/03/15 06:20:41;;;;;;;9.03;3.20;;;1.60;99.90;;;;;;4880018;29;20488;-79
2023/03/15 06:23:13;;;;;;;10.10;4.17;;;1.60;99.90;;;;;;4879910;29;20529;-79
2023/03/15 06:25:45;;;;;;;9.73;3.30;;;1.60;99.90;;;;;;4886002;29;20521;-79
2023/03/15 06:28:14;;;;;;;7.50;4.27;;;1.60;99.90;;;;;;4891411;29;20468;-79
2023/03/15 06:30:50;;;;;;;10.00;3.73;;;1.60;99.90;;;;;;4879761;29;20478;-79
2023/03/15 06:33:23;;;;;;;12.83;3.20;;;1.60;99.90;;;;;;4879686;29;20556;-79
2023/03/15 06:35:52;;;;;;;6.63;3.27;;;1.70;99.90;;;;;;4880025;29;20461;-79
2023/03/15 06:38:20;;;;;;;7.57;2.67;;;1.70;99.90;;;;;;4880338;29;20960;-78
2023/03/15 06:40:50;;;;;;;6.73;3.00;;;1.80;99.90;;;;;;4880191;29;20471;-79
2023/03/15 06:43:18;;;;;;;9.47;3.37;;;2.00;99.90;;;;;;4880136;29;20469;-79
2023/03/15 06:45:47;;;;;;;7.50;3.27;;;2.10;99.90;;;;;;4880994;29;20460;-79
2023/03/15 06:48:18;;;;;;;7.70;3.23;;;2.20;99.90;;;;;;4881346;29;20487;-79
2023/03/15 06:50:46;;;;;;;7.03;2.93;;;2.30;99.90;;;;;;4880931;29;20500;-79
2023/03/15 06:53:16;;;;;;;5.60;3.20;;;2.40;99.90;;;;;;4881118;29;20536;-80
2023/03/15 06:55:46;;;;;;;6.67;3.10;;;2.50;99.90;;;;;;4881984;29;20458;-79
2023/03/15 06:58:14;;;;;;;8.33;3.10;;;2.60;99.90;;;;;;4881195;29;20453;-79
2023/03/15 07:00:43;;;;;;;12.40;3.67;;;2.60;99.90;;;;;;4881099;29;20564;-79
2023/03/15 07:03:11;;;;;;;10.13;3.20;;;2.60;99.90;;;;;;4880953;29;20461;-79
2023/03/15 07:05:41;;;;;;;7.47;3.10;;;2.50;99.90;;;;;;4880663;29;20462;-79
2023/03/15 07:08:09;;;;;;;6.13;2.77;;;2.50;99.90;;;;;;4880176;29;20457;-79
2023/03/15 07:10:37;;;;;;;10.77;3.70;;;2.40;99.90;;;;;;4880725;29;20494;-79
2023/03/15 07:13:06;;;;;;;9.93;3.20;;;2.40;99.90;;;;;;4880670;29;20450;-79
2023/03/15 07:15:36;;;;;;;6.43;2.90;;;2.50;99.90;;;;;;4881112;29;20503;-80
2023/03/15 07:22:39;;;;;;;5.50;2.43;;;2.60;99.90;;;;;;4850046;29;20989;-78
2023/03/15 07:25:08;;;;;;;9.70;2.80;;;2.60;99.90;;;;;;4881026;29;20455;-78
2023/03/15 07:27:57;;;;;;;5.27;2.27;;;2.60;99.90;;;;;;4881581;29;20439;-78
2023/03/15 07:31:22;;;;;;;10.13;2.60;;;2.60;99.90;;;;;;4868791;29;20495;-79
2023/03/15 07:33:50;;;;;;;7.17;2.50;;;2.70;99.90;;;;;;4881038;29;20490;-79
2023/03/15 07:36:21;;;;;;;9.60;3.33;;;2.70;99.90;;;;;;4882514;29;20442;-79
2023/03/15 07:38:50;;;;;;;13.30;2.70;;;2.80;99.90;;;;;;4880424;29;21000;-80
2023/03/15 07:41:18;;;;;;;7.70;3.33;;;2.80;99.90;;;;;;4880422;29;20484;-79
2023/03/15 07:44:16;;;;;;;8.13;2.70;;;3.30;99.90;;;;;;4881370;29;20490;-79
2023/03/15 07:46:44;;;;;;;7.60;3.17;;;3.00;99.90;;;;;;4880399;29;20522;-79
2023/03/15 07:49:13;;;;;;;8.13;2.30;;;3.00;99.90;;;;;;4880687;29;20565;-79
2023/03/15 07:51:42;;;;;;;8.40;2.80;;;3.10;99.90;;;;;;4880964;29;20872;-79
2023/03/15 07:54:11;;;;;;;8.50;3.00;;;3.20;99.90;;;;;;4880375;29;20493;-79
2023/03/15 07:56:40;;;;;;;7.17;2.50;;;3.30;99.90;;;;;;4880733;29;20470;-79
2023/03/15 07:59:08;;;;;;;8.17;2.77;;;3.30;99.90;;;;;;4880358;29;20816;-79
2023/03/15 08:01:37;;;;;;;8.70;2.87;;;3.40;99.90;;;;;;4881632;29;20459;-79
2023/03/15 08:04:05;;;;;;;9.00;2.83;;;3.50;99.90;;;;;;4880825;29;20458;-79
2023/03/15 08:06:33;;;;;;;7.87;2.33;;;3.60;99.90;;;;;;4880718;29;20450;-79
2023/03/15 08:09:04;;;;;;;8.40;2.13;;;3.70;99.90;;;;;;4881617;29;20469;-79
2023/03/15 08:11:36;;;;;;;7.40;2.33;;;3.80;99.90;;;;;;4881473;29;20512;-79
2023/03/15 08:14:04;;;;;;;7.03;1.87;;;4.00;99.90;;;;;;4882164;29;20422;-79
2023/03/15 08:16:32;;;;;;;12.83;3.20;;;4.10;99.90;;;;;;4880367;29;20952;-80
2023/03/15 08:19:01;;;;;;;7.27;2.37;;;4.30;99.90;;;;;;4880922;29;20453;-79
2023/03/15 08:21:32;;;;;;;6.70;2.67;;;4.40;99.90;;;;;;4884719;29;20467;-80
2023/03/15 08:24:01;;;;;;;8.67;2.80;;;4.60;99.90;;;;;;4884068;29;20999;-80
2023/03/15 08:26:29;;;;;;;5.70;2.33;;;4.80;99.90;;;;;;4884239;29;20462;-79
2023/03/15 08:28:58;;;;;;;8.37;2.43;;;4.90;99.90;;;;;;4884465;29;20469;-80
2023/03/15 08:31:26;;;;;;;10.20;2.80;;;5.10;99.90;;;;;;4883789;29;20485;-80
2023/03/15 08:33:55;;;;;;;7.67;2.43;;;5.20;99.90;;;;;;4885319;29;20522;-80
2023/03/15 08:36:23;;;;;;;7.03;2.33;;;5.30;99.90;;;;;;4883441;29;20834;-80
2023/03/15 08:38:51;;;;;;;11.63;3.10;;;5.40;99.90;;;;;;4883502;29;20477;-80
2023/03/15 08:41:19;;;;;;;8.90;2.77;;;5.60;99.90;;;;;;4883184;29;20462;-80
2023/03/15 08:43:47;;;;;;;7.87;2.67;;;5.60;99.90;;;;;;4883517;29;20976;-80
2023/03/15 08:46:17;;;;;;;8.87;2.80;;;5.70;99.90;;;;;;4884032;29;20496;-79
2023/03/15 08:48:45;;;;;;;7.50;2.10;;;5.80;99.90;;;;;;4883555;29;20519;-79
2023/03/15 08:51:13;;;;;;;11.73;2.97;;;5.80;99.90;;;;;;4883335;29;20489;-80
2023/03/15 08:53:41;;;;;;;9.50;2.73;;;5.90;99.90;;;;;;4883555;29;20830;-79
2023/03/15 08:56:09;;;;;;;7.40;2.33;;;5.90;99.90;;;;;;4882948;29;20458;-79
2023/03/15 08:58:37;;;;;;;10.57;2.53;;;6.00;99.90;;;;;;4883528;29;20945;-80
2023/03/15 09:01:06;;;;;;;6.73;2.40;;;6.10;99.90;;;;;;4883887;29;20500;-80
2023/03/15 09:03:35;;;;;;;7.20;2.90;;;6.20;99.90;;;;;;4883551;29;20466;-80
2023/03/15 09:06:03;;;;;;;6.47;2.43;;;6.20;99.90;;;;;;4883330;29;20462;-79
2023/03/15 09:08:32;;;;;;;10.40;2.70;;;6.30;99.90;;;;;;4882721;29;20463;-79
2023/03/15 09:11:01;;;;;;;10.73;2.47;;;6.30;99.90;;;;;;4884823;29;20484;-79
2023/03/15 09:13:30;;;;;;;8.17;3.00;;;6.30;99.90;;;;;;4884086;29;20471;-79
2023/03/15 09:15:58;;;;;;;8.10;2.30;;;6.40;99.90;;;;;;4882960;29;20973;-79
2023/03/15 09:18:26;;;;;;;8.70;2.17;;;6.40;99.90;;;;;;4883018;29;20469;-79
2023/03/15 09:20:56;;;;;;;10.17;2.90;;;6.50;99.90;;;;;;4883185;29;20474;-79
2023/03/15 09:23:24;;;;;;;8.57;2.50;;;6.50;99.90;;;;;;4883341;29;20456;-79
2023/03/15 09:25:53;;;;;;;10.50;2.10;;;6.50;99.90;;;;;;4883217;29;20471;-79
2023/03/15 09:28:21;;;;;;;6.60;1.93;;;6.50;99.90;;;;;;4884463;29;20456;-79
2023/03/15 09:30:49;;;;;;;5.97;2.30;;;6.60;99.90;;;;;;4882818;29;20484;-79
2023/03/15 09:33:18;;;;;;;5.77;2.40;;;6.60;99.90;;;;;;4882838;29;20509;-79
2023/03/15 09:35:47;;;;;;;10.53;2.80;;;6.60;99.90;;;;;;4881981;29;20972;-78
2023/03/15 09:38:16;;;;;;;7.53;2.20;;;6.60;99.90;;;;;;4879952;29;20452;-78
2023/03/15 09:40:46;;;;;;;8.63;2.20;;;6.60;99.90;;;;;;4880179;29;20511;-78
2023/03/15 09:43:35;;;;;;;8.30;2.23;;;6.70;99.90;;;;;;4880077;29;20459;-78
2023/03/15 09:46:16;;;;;;;6.73;2.10;;;6.70;99.90;;;;;;4880173;29;20966;-78
2023/03/15 09:48:51;;;;;;;8.83;2.70;;;6.70;99.90;;;;;;4879923;29;20447;-78
2023/03/15 09:51:34;;;;;;;8.07;2.50;;;6.80;99.90;;;;;;4879619;29;20575;-78
2023/03/15 09:54:09;;;;;;;6.10;2.20;;;6.80;99.90;;;;;;4879617;29;20452;-78
2023/03/15 09:56:44;;;;;;;5.53;2.00;;;6.80;99.90;;;;;;4879628;29;20474;-78
2023/03/15 09:59:15;;;;;;;6.13;2.30;;;6.80;99.90;;;;;;4880724;29;20979;-78
2023/03/15 10:01:44;;;;;;;8.43;2.20;;;6.90;99.90;;;;;;4879741;29;20946;-78
2023/03/15 10:04:18;;;;;;;9.60;2.90;;;7.00;99.90;;;;;;4879550;29;20451;-78
2023/03/15 10:06:52;;;;;;;8.57;2.47;;;7.00;99.90;;;;;;4879589;29;20448;-78
2023/03/15 10:09:25;;;;;;;10.40;2.50;;;7.00;99.90;;;;;;4879353;29;20853;-78
2023/03/15 10:12:03;;;;;;;3.63;1.10;;;7.00;99.90;;;;;;4879381;29;20528;-78
2023/03/15 10:14:48;;;;;;;3.00;0.73;;;6.80;99.90;;;;;;4879382;29;20524;-77
2023/03/15 10:17:24;;;;;;;3.00;0.70;;;6.30;99.90;;;;;;4879201;29;20520;-77
2023/03/15 10:19:57;;;;;;;4.00;0.90;;;5.70;99.90;;;;;;4879064;29;20513;-77
2023/03/15 10:22:32;;;;;;;4.37;0.83;;;5.20;99.90;;;;;;4879173;29;20434;-77
2023/03/15 10:25:11;;;;;;;4.40;0.97;;;4.80;99.90;;;;;;4880812;29;20443;-77
2023/03/15 10:27:43;;;;;;;3.57;0.80;;;4.40;99.90;;;;;;4879709;29;20484;-78
2023/03/15 10:30:17;;;;;;;2.70;0.70;;;4.10;99.90;;;;;;4878932;29;20533;-78
2023/03/15 10:32:49;;;;;;;3.43;1.00;;;3.80;99.90;;;;;;4879111;29;20470;-78
2023/03/15 10:35:20;;;;;;;3.87;0.70;;;3.50;99.90;;;;;;4879101;29;20966;-78
2023/03/15 10:37:48;;;;;;;5.10;1.00;;;3.30;99.90;;;;;;4879086;29;20494;-78
2023/03/15 10:40:39;;;;;;;4.07;1.20;;;3.20;99.90;;;;;;4878868;29;20485;-78
2023/03/15 10:43:16;;;;;;;4.70;1.00;;;3.00;99.90;;;;;;4878794;29;20541;-78
2023/03/15 10:45:57;;;;;;;3.70;0.67;;;2.90;99.90;;;;;;4879180;29;20871;-78
2023/03/15 10:48:25;;;;;;;3.30;1.20;;;2.70;99.90;;;;;;4879524;29;20460;-78
2023/03/15 10:50:55;;;;;;;3.50;1.00;;;2.70;99.90;;;;;;4879616;29;20468;-79
2023/03/15 10:53:25;;;;;;;4.00;1.10;;;2.60;99.90;;;;;;4882168;29;20803;-79
2023/03/15 10:56:14;;;;;;;4.77;1.47;;;2.70;99.90;;;;;;4881349;29;20975;-79
2023/03/15 10:58:47;;;;;;;5.23;1.33;;;2.70;99.90;;;;;;4882231;29;20811;-80
2023/03/15 11:01:36;;;;;;;4.60;1.40;;;2.80;99.90;;;;;;4884864;29;20791;-80
2023/03/15 11:04:15;;;;;;;6.07;1.30;;;2.90;99.90;;;;;;4882298;29;20509;-79
2023/03/15 11:06:46;;;;;;;4.97;1.37;;;3.00;99.90;;;;;;4883530;29;20549;-80
2023/03/15 11:09:16;;;;;;;5.00;1.30;;;3.00;99.90;;;;;;4882226;29;20454;-80
2023/03/15 11:11:59;;;;;;;3.33;1.20;;;3.10;99.90;;;;;;4884413;29;20552;-80
2023/03/15 11:14:33;;;;;;;4.20;1.30;;;3.20;99.90;;;;;;4888001;29;20475;-81
2023/03/15 11:17:04;;;;;;;4.53;1.57;;;3.20;99.90;;;;;;4889126;29;20450;-82
2023/03/15 11:19:35;;;;;;;4.23;1.40;;;3.30;99.90;;;;;;4889265;29;20583;-83
2023/03/15 11:22:04;;;;;;;4.17;1.20;;;3.40;99.90;;;;;;4889204;29;20461;-83
2023/03/15 11:24:34;;;;;;;3.50;1.57;;;3.40;99.90;;;;;;4887150;29;20492;-83
2023/03/15 11:27:11;;;;;;;5.00;1.90;;;3.60;99.90;;;;;;4885756;29;20544;-83
2023/03/15 11:29:41;;;;;;;7.60;4.00;;;3.60;99.90;;;;;;4885853;29;21003;-83
2023/03/15 11:32:14;;;;;;;9.23;3.83;;;3.60;99.90;;;;;;4886001;29;20485;-83
2023/03/15 11:34:46;;;;;;;6.87;3.50;;;3.70;99.90;;;;;;4885874;29;20441;-83
2023/03/15 11:37:19;;;;;;;9.00;4.40;;;3.70;99.90;;;;;;4886072;29;20457;-83
2023/03/15 11:39:53;;;;;;;4.80;1.80;;;3.70;99.90;;;;;;4885690;29;20473;-82
2023/03/15 11:42:44;;;;;;;4.43;1.70;;;3.80;99.90;;;;;;4886850;29;20454;-82
2023/03/15 11:45:18;;;;;;;5.53;1.63;;;3.90;99.90;;;;;;4887154;29;20509;-82
2023/03/15 11:47:53;;;;;;;4.33;1.43;;;3.90;99.90;;;;;;4888288;29;20457;-82
2023/03/15 11:50:21;;;;;;;6.70;1.80;;;3.90;99.90;;;;;;4888864;29;20472;-82
2023/03/15 11:52:51;;;;;;;8.23;1.77;;;3.90;99.90;;;;;;4886593;29;20577;-82
2023/03/15 11:55:29;;;;;;;4.40;1.50;;;3.90;99.90;;;;;;4891028;29;20457;-81
2023/03/15 11:58:31;;;;;;;5.73;1.47;;;3.80;99.90;;;;;;4895298;29;20491;-81
2023/03/15 12:01:04;;;;;;;4.10;1.30;;;3.90;99.90;;;;;;4893040;29;20528;-81
2023/03/15 12:03:39;;;;;;;5.13;1.83;;;3.90;99.90;;;;;;4891917;29;20460;-81
2023/03/15 12:06:33;;;;;;;7.60;2.10;;;3.90;99.90;;;;;;4892317;29;20504;-81
2023/03/15 12:09:03;;;;;;;4.90;1.73;;;3.90;99.90;;;;;;4891327;29;20966;-80
2023/03/15 12:11:42;;;;;;;7.33;2.37;;;4.10;99.90;;;;;;4891977;29;20470;-81
2023/03/15 12:14:30;;;;;;;6.30;1.67;;;4.00;99.90;;;;;;4894800;29;20475;-80
2023/03/15 12:17:41;;;;;;;4.10;2.07;;;4.10;99.90;;;;;;4894750;29;20453;-80
2023/03/15 12:20:20;;;;;;;5.63;1.43;;;4.20;99.90;;;;;;4835019;29;20555;-80
2023/03/15 12:22:51;;;;;;;5.27;1.80;;;4.30;99.90;;;;;;4832679;29;20451;-80
2023/03/15 12:25:24;;;;;;;3.70;1.50;;;4.40;99.90;;;;;;4864432;29;20460;-80
2023/03/15 12:27:55;;;;;;;3.87;1.30;;;4.40;99.90;;;;;;4885996;29;20530;-80
2023/03/15 12:30:32;;;;;;;4.87;1.40;;;4.50;99.90;;;;;;4883993;29;20521;-80
2023/03/15 12:33:03;;;;;;;4.50;1.37;;;4.50;99.90;;;;;;4884186;29;20477;-80
2023/03/15 12:35:38;;;;;;;5.50;1.67;;;4.50;99.90;;;;;;4884137;29;20454;-80
2023/03/15 12:38:12;;;;;;;4.43;1.60;;;4.60;99.90;;;;;;4884984;29;20509;-80
2023/03/15 12:40:51;;;;;;;6.57;1.47;;;4.60;99.90;;;;;;4884586;29;20492;-80
2023/03/15 12:43:37;;;;;;;5.00;2.00;;;4.50;99.90;;;;;;4885025;29;20458;-80
2023/03/15 12:46:07;;;;;;;5.37;1.60;;;4.60;99.90;;;;;;4885100;29;21031;-79
2023/03/15 12:48:36;;;;;;;5.47;1.90;;;4.60;99.90;;;;;;4884226;29;20470;-80
2023/03/15 12:51:10;;;;;;;3.90;1.20;;;4.60;99.90;;;;;;4883971;29;20528;-79
2023/03/15 12:53:49;;;;;;;6.63;1.23;;;4.60;99.90;;;;;;4884079;29;20528;-80
2023/03/15 12:56:43;;;;;;;4.83;2.13;;;4.60;99.90;;;;;;4884791;29;20486;-78
2023/03/15 12:59:31;;;;;;;3.83;1.50;;;4.70;99.90;;;;;;4880862;29;20968;-78
2023/03/15 13:02:03;;;;;;;4.67;1.30;;;4.80;99.90;;;;;;4883835;29;20442;-78
2023/03/15 13:04:32;;;;;;;4.13;1.10;;;4.80;99.90;;;;;;4882953;29;20500;-78
2023/03/15 13:07:24;;;;;;;4.10;1.50;;;4.90;99.90;;;;;;4881432;29;20458;-79
2023/03/15 13:10:18;;;;;;;6.03;1.77;;;5.00;99.90;;;;;;4884541;29;20565;-79
2023/03/15 13:12:53;;;;;;;4.30;1.30;;;5.10;99.90;;;;;;4882079;29;20496;-79
2023/03/15 13:15:27;;;;;;;3.63;1.10;;;5.20;99.90;;;;;;4882723;29;20453;-79
2023/03/15 13:17:58;;;;;;;4.87;1.30;;;5.20;99.90;;;;;;4881858;29;20933;-79
2023/03/15 13:20:42;;;;;;;5.13;1.53;;;5.30;99.90;;;;;;4882052;29;20559;-79
2023/03/15 13:23:16;;;;;;;5.43;1.67;;;5.30;99.90;;;;;;4880754;29;20530;-79
2023/03/15 13:26:04;;;;;;;5.30;1.50;;;5.40;99.90;;;;;;4882956;29;20888;-79
2023/03/15 13:28:36;;;;;;;5.10;1.47;;;5.50;99.90;;;;;;4881811;29;20790;-79
2023/03/15 13:31:13;;;;;;;5.93;1.40;;;5.50;99.90;;;;;;4881419;29;20489;-78
2023/03/15 13:33:42;;;;;;;5.43;1.83;;;5.60;99.90;;;;;;4881063;29;20525;-79
2023/03/15 13:36:14;;;;;;;5.23;1.43;;;5.60;99.90;;;;;;4881485;29;20458;-79